Time;durP1;ratioP1;P1;durP2;ratioP2;P2;SDS_P1;SDS_P2;PMS_P1;PMS_P2;Temp;Humidity;BMP_temperature;BMP_pressure;BME280_temperature;BME280_humidity;BME280_pressure;Samples;Min_cycle;Max_cycle;Signal;HPM_P1;HPM_P2
2023/04/16 00:00:17;;;;;;;10.65;4.63;;;9.50;99.90;;;;;;5040422;28;20029;-43
2023/04/16 00:02:46;;;;;;;10.50;4.50;;;9.60;99.90;;;;;;5040709;28;20471;-43
2023/04/16 00:05:12;;;;;;;9.63;4.63;;;9.60;99.90;;;;;;5039851;28;20056;-43
2023/04/16 00:07:40;;;;;;;17.48;5.80;;;9.60;99.90;;;;;;5039597;28;20048;-43
2023/04/16 00:10:06;;;;;;;14.65;5.40;;;9.60;99.90;;;;;;5036326;28;20591;-42
2023/04/16 00:12:32;;;;;;;9.73;5.15;;;9.60;99.90;;;;;;5040513;28;20035;-44
2023/04/16 00:14:58;;;;;;;11.88;5.53;;;9.60;99.90;;;;;;5040212;28;20025;-44
2023/04/16 00:17:23;;;;;;;10.98;6.45;;;9.60;99.90;;;;;;5040591;28;20037;-44
2023/04/16 00:19:49;;;;;;;11.05;5.25;;;9.50;99.90;;;;;;5040259;28;20526;-43
2023/04/16 00:22:15;;;;;;;16.40;6.45;;;9.50;99.90;;;;;;5040181;28;20141;-43
2023/04/16 00:24:41;;;;;;;11.68;4.82;;;9.50;99.90;;;;;;5040941;28;20041;-42
2023/04/16 00:27:06;;;;;;;14.07;6.68;;;9.50;99.90;;;;;;5039931;28;20374;-43
2023/04/16 00:29:33;;;;;;;12.27;5.80;;;9.50;99.90;;;;;;5040372;28;20083;-43
2023/04/16 00:31:59;;;;;;;14.00;6.30;;;9.50;99.90;;;;;;5040148;28;20108;-42
2023/04/16 00:34:24;;;;;;;14.48;6.85;;;9.50;99.90;;;;;;5039964;28;20025;-43
2023/04/16 00:36:50;;;;;;;13.85;6.35;;;9.50;99.90;;;;;;5040288;28;20070;-42
2023/04/16 00:39:15;;;;;;;12.43;6.80;;;9.60;99.90;;;;;;5040176;28;20023;-43
2023/04/16 00:41:42;;;;;;;13.25;6.10;;;9.50;99.90;;;;;;5039752;28;20029;-43
2023/04/16 00:44:08;;;;;;;13.98;6.55;;;9.50;99.90;;;;;;5040510;28;20021;-42
2023/04/16 00:46:34;;;;;;;14.45;6.55;;;9.50;99.90;;;;;;5040021;28;20103;-43
2023/04/16 00:49:01;;;;;;;16.08;7.10;;;9.50;99.90;;;;;;5039670;28;20045;-43
2023/04/16 00:51:27;;;;;;;14.98;6.75;;;9.60;99.90;;;;;;5040436;28;20028;-43
2023/04/16 00:53:53;;;;;;;15.07;6.70;;;9.60;99.90;;;;;;5040511;28;20400;-44
2023/04/16 00:56:23;;;;;;;12.50;5.95;;;9.60;99.90;;;;;;5039633;28;20060;-42
2023/04/16 00:58:49;;;;;;;13.90;6.20;;;9.60;99.90;;;;;;5041015;28;20656;-42
2023/04/16 01:01:15;;;;;;;13.60;6.70;;;9.60;99.90;;;;;;5040636;28;20486;-45
2023/04/16 01:03:46;;;;;;;13.98;6.88;;;9.60;99.90;;;;;;5039842;28;20123;-43
2023/04/16 01:06:13;;;;;;;15.68;7.70;;;9.60;99.90;;;;;;5040797;28;20036;-44
2023/04/16 01:08:38;;;;;;;20.83;8.18;;;9.60;99.90;;;;;;5040288;28;20121;-43
2023/04/16 01:11:04;;;;;;;13.38;7.35;;;9.60;99.90;;;;;;5039711;28;20170;-43
2023/04/16 01:13:31;;;;;;;20.75;7.72;;;9.60;99.90;;;;;;5039488;28;20025;-44
2023/04/16 01:15:56;;;;;;;21.20;8.40;;;9.60;99.90;;;;;;5039189;28;20025;-45
2023/04/16 01:18:23;;;;;;;17.95;7.85;;;9.60;99.90;;;;;;5039709;28;20075;-44
2023/04/16 01:20:49;;;;;;;19.23;7.15;;;9.60;99.90;;;;;;5039456;28;20048;-43
2023/04/16 01:23:17;;;;;;;15.93;8.02;;;9.60;99.90;;;;;;5038998;28;20036;-43
2023/04/16 01:25:43;;;;;;;14.07;7.20;;;9.60;99.90;;;;;;5039641;28;20039;-43
2023/04/16 01:28:08;;;;;;;14.75;7.63;;;9.60;99.90;;;;;;5039523;28;20024;-43
2023/04/16 01:30:34;;;;;;;18.08;7.70;;;9.60;99.90;;;;;;5039347;28;20028;-43
2023/04/16 01:33:00;;;;;;;17.23;7.70;;;9.60;99.90;;;;;;5039178;28;20061;-44
2023/04/16 01:35:25;;;;;;;15.45;7.53;;;9.60;99.90;;;;;;5042188;28;20108;-43
2023/04/16 01:37:51;;;;;;;17.70;8.60;;;9.70;99.90;;;;;;5043000;28;20033;-43
2023/04/16 01:40:17;;;;;;;19.95;8.95;;;9.70;99.90;;;;;;5044453;28;20032;-44
2023/04/16 01:42:43;;;;;;;17.25;8.68;;;9.70;99.90;;;;;;5042884;28;20134;-43
2023/04/16 01:45:09;;;;;;;22.75;10.80;;;9.70;99.90;;;;;;5041839;28;20116;-44
2023/04/16 01:47:34;;;;;;;19.90;10.23;;;9.70;99.90;;;;;;5043422;28;20152;-43
2023/04/16 01:50:02;;;;;;;19.30;9.50;;;9.70;99.90;;;;;;5043870;28;20029;-43
2023/04/16 01:52:27;;;;;;;19.95;9.80;;;9.70;99.90;;;;;;5043152;28;20095;-43
2023/04/16 01:54:53;;;;;;;21.75;9.85;;;9.70;99.90;;;;;;5043397;28;20029;-46
2023/04/16 01:57:18;;;;;;;20.75;10.20;;;9.60;99.90;;;;;;5043440;28;20106;-43
2023/04/16 01:59:45;;;;;;;20.55;9.73;;;9.60;99.90;;;;;;5042482;28;20075;-43
2023/04/16 02:02:12;;;;;;;20.30;9.48;;;9.60;99.90;;;;;;5042757;28;20468;-42
2023/04/16 02:04:39;;;;;;;18.02;9.43;;;9.60;99.90;;;;;;5043629;28;20033;-44
2023/04/16 02:07:08;;;;;;;25.45;10.85;;;9.60;99.90;;;;;;5042724;28;20017;-43
2023/04/16 02:09:35;;;;;;;21.17;9.50;;;9.70;99.90;;;;;;5032440;28;20068;-43
2023/04/16 02:12:03;;;;;;;22.77;9.70;;;9.70;99.90;;;;;;5043378;28;20028;-43
2023/04/16 02:14:30;;;;;;;15.82;8.88;;;9.70;99.90;;;;;;5042302;28;20036;-43
2023/04/16 02:16:56;;;;;;;17.30;8.60;;;9.70;99.90;;;;;;5042928;28;20119;-43
2023/04/16 02:19:24;;;;;;;18.95;9.25;;;9.70;99.90;;;;;;5042422;28;20021;-43
2023/04/16 02:21:53;;;;;;;18.42;9.57;;;9.70;99.90;;;;;;5042179;28;20037;-45
2023/04/16 02:24:20;;;;;;;16.05;8.80;;;9.70;99.90;;;;;;5042141;28;20041;-43
2023/04/16 02:26:45;;;;;;;20.42;10.00;;;9.70;99.90;;;;;;5041516;28;20055;-42
2023/04/16 02:29:11;;;;;;;23.02;11.68;;;9.80;99.90;;;;;;5041801;28;20111;-42
2023/04/16 02:31:37;;;;;;;22.30;10.25;;;9.70;99.90;;;;;;5041969;28;20082;-44
2023/04/16 02:34:03;;;;;;;23.92;11.05;;;9.70;99.90;;;;;;5042352;28;20051;-43
2023/04/16 02:36:30;;;;;;;17.65;9.73;;;9.70;99.90;;;;;;5042408;28;20040;-43
2023/04/16 02:38:56;;;;;;;17.13;9.45;;;9.70;99.90;;;;;;5043108;28;20057;-43
2023/04/16 02:41:22;;;;;;;23.20;10.30;;;9.70;99.90;;;;;;5042408;28;20128;-43
2023/04/16 02:43:47;;;;;;;21.83;11.07;;;9.70;99.90;;;;;;5041918;28;20049;-43
2023/04/16 02:46:13;;;;;;;21.00;10.40;;;9.70;99.90;;;;;;5041444;28;20435;-43
2023/04/16 02:48:39;;;;;;;20.90;9.68;;;9.70;99.90;;;;;;5040866;28;20045;-43
2023/04/16 02:51:05;;;;;;;22.42;10.82;;;9.70;99.90;;;;;;5042538;28;20037;-42
2023/04/16 02:53:30;;;;;;;24.88;10.00;;;9.80;99.90;;;;;;5043066;28;20132;-43
2023/04/16 02:55:56;;;;;;;26.27;11.32;;;9.80;99.90;;;;;;5041602;28;20029;-43
2023/04/16 02:58:23;;;;;;;18.90;9.80;;;9.80;99.90;;;;;;5042427;28;20084;-42
2023/04/16 03:00:49;;;;;;;22.50;11.10;;;9.80;99.90;;;;;;5042389;28;20021;-43
2023/04/16 03:03:15;;;;;;;24.65;12.35;;;9.80;99.90;;;;;;5042160;28;20032;-43
2023/04/16 03:05:40;;;;;;;28.05;13.13;;;9.80;99.90;;;;;;5041251;28;20451;-42
2023/04/16 03:08:06;;;;;;;22.27;11.32;;;9.80;99.90;;;;;;5041866;28;20029;-44
2023/04/16 03:10:32;;;;;;;25.08;12.18;;;9.80;99.90;;;;;;5041410;28;20029;-42
2023/04/16 03:12:58;;;;;;;25.10;11.98;;;9.80;99.90;;;;;;5042174;28;20052;-44
2023/04/16 03:15:24;;;;;;;27.80;13.43;;;9.80;99.90;;;;;;5041948;28;20490;-42
2023/04/16 03:17:50;;;;;;;23.00;12.93;;;9.70;99.90;;;;;;5042045;28;20037;-43
2023/04/16 03:20:16;;;;;;;22.25;12.05;;;9.70;99.90;;;;;;5042200;28;20025;-42
2023/04/16 03:22:42;;;;;;;20.98;11.57;;;9.80;99.90;;;;;;5041531;28;20814;-44
2023/04/16 03:25:08;;;;;;;23.95;13.25;;;9.70;99.90;;;;;;5042197;28;20152;-43
2023/04/16 03:27:34;;;;;;;28.98;14.55;;;9.80;99.90;;;;;;5042164;28;20758;-43
2023/04/16 03:30:00;;;;;;;27.13;13.18;;;9.80;99.90;;;;;;5041267;28;20036;-43
2023/04/16 03:32:25;;;;;;;23.83;13.00;;;9.80;99.90;;;;;;5041874;28;20025;-44
2023/04/16 03:34:51;;;;;;;19.52;10.68;;;9.80;99.90;;;;;;5041214;28;20078;-43
2023/04/16 03:37:16;;;;;;;31.00;13.48;;;9.80;99.90;;;;;;5040807;28;20556;-42
2023/04/16 03:39:45;;;;;;;25.30;11.27;;;9.80;99.90;;;;;;5041123;28;20469;-42
2023/04/16 03:42:11;;;;;;;20.80;11.85;;;9.80;99.90;;;;;;5041144;28;20071;-43
2023/04/16 03:44:36;;;;;;;24.85;13.10;;;9.80;99.90;;;;;;5040667;28;20044;-42
2023/04/16 03:47:02;;;;;;;20.20;11.80;;;9.80;99.90;;;;;;5041493;28;20028;-43
2023/04/16 03:49:27;;;;;;;20.92;11.23;;;9.80;99.90;;;;;;5041710;28;20107;-43
2023/04/16 03:51:53;;;;;;;24.98;13.88;;;9.80;99.90;;;;;;5040984;28;20485;-43
2023/04/16 03:54:18;;;;;;;28.00;13.95;;;9.80;99.90;;;;;;5041752;28;20537;-43
2023/04/16 03:56:44;;;;;;;24.08;11.77;;;9.80;99.90;;;;;;5041095;28;20037;-42
2023/04/16 03:59:09;;;;;;;23.65;12.05;;;9.80;99.90;;;;;;5039671;28;20035;-44
2023/04/16 04:01:35;;;;;;;24.60;13.27;;;9.80;99.90;;;;;;5041200;28;20025;-43
2023/04/16 04:04:01;;;;;;;25.63;13.63;;;9.80;99.90;;;;;;5041270;28;20062;-43
2023/04/16 04:06:26;;;;;;;27.83;14.20;;;9.80;99.90;;;;;;5040460;28;20566;-43
2023/04/16 04:08:52;;;;;;;26.65;13.27;;;9.80;99.90;;;;;;5041299;28;20036;-42
2023/04/16 04:11:18;;;;;;;26.60;12.38;;;9.80;99.90;;;;;;5041005;28;20555;-44
2023/04/16 04:13:43;;;;;;;26.08;13.00;;;9.80;99.90;;;;;;5040198;28;20033;-44
2023/04/16 04:16:09;;;;;;;22.13;12.25;;;9.80;99.90;;;;;;5041219;28;20028;-42
2023/04/16 04:18:35;;;;;;;20.98;10.68;;;9.90;99.90;;;;;;5041161;28;20104;-43
2023/04/16 04:21:07;;;;;;;31.27;14.38;;;9.80;99.90;;;;;;5040980;28;20052;-43
2023/04/16 04:23:51;;;;;;;22.13;12.02;;;9.80;99.90;;;;;;5041164;28;20894;-43
2023/04/16 04:26:16;;;;;;;28.90;13.57;;;9.80;99.90;;;;;;5040732;28;20041;-44
2023/04/16 04:28:42;;;;;;;30.40;14.05;;;9.80;99.90;;;;;;5040752;28;20894;-43
2023/04/16 04:31:07;;;;;;;30.52;15.98;;;9.80;99.90;;;;;;5041145;28;20109;-42
2023/04/16 04:33:33;;;;;;;29.15;15.02;;;9.80;99.90;;;;;;5039776;28;20025;-43
2023/04/16 04:35:58;;;;;;;27.08;13.07;;;9.80;99.90;;;;;;5040724;28;20472;-43
2023/04/16 04:38:24;;;;;;;23.75;12.10;;;9.80;99.90;;;;;;5040336;28;20032;-43
2023/04/16 04:40:51;;;;;;;26.25;14.48;;;9.80;99.90;;;;;;5039165;28;20065;-43
2023/04/16 04:43:18;;;;;;;27.90;14.35;;;9.80;99.90;;;;;;5040039;28;20028;-43
2023/04/16 04:45:44;;;;;;;31.42;14.38;;;9.80;99.90;;;;;;5039416;28;20051;-44
2023/04/16 04:48:10;;;;;;;27.02;13.57;;;9.80;99.90;;;;;;5038686;28;20045;-43
2023/04/16 04:50:36;;;;;;;26.60;13.43;;;9.80;99.90;;;;;;5039944;28;20021;-43
2023/04/16 04:53:01;;;;;;;24.50;12.40;;;9.80;99.90;;;;;;5039976;28;20025;-43
2023/04/16 04:55:27;;;;;;;28.50;15.45;;;9.90;99.90;;;;;;5039285;28;20039;-44
2023/04/16 04:57:52;;;;;;;33.60;15.65;;;9.80;99.90;;;;;;5040463;28;20916;-43
2023/04/16 05:00:18;;;;;;;32.25;15.02;;;9.80;99.90;;;;;;5040264;28;20503;-44
2023/04/16 05:02:43;;;;;;;33.97;17.75;;;9.80;99.90;;;;;;5038682;28;20090;-44
2023/04/16 05:05:09;;;;;;;30.58;16.75;;;9.80;99.90;;;;;;5039615;28;20064;-43
2023/04/16 05:07:35;;;;;;;29.20;14.45;;;9.70;99.90;;;;;;5039597;28;20115;-43
2023/04/16 05:10:03;;;;;;;32.83;16.95;;;9.70;99.90;;;;;;5045495;28;20567;-43
2023/04/16 05:12:29;;;;;;;31.60;16.33;;;9.70;99.90;;;;;;5047050;28;20027;-43
2023/04/16 05:14:54;;;;;;;35.53;17.17;;;9.70;99.90;;;;;;5046917;28;20025;-43
2023/04/16 05:17:20;;;;;;;31.20;15.63;;;9.70;99.90;;;;;;5045948;28;20448;-43
2023/04/16 05:19:45;;;;;;;30.02;16.20;;;9.70;99.90;;;;;;5046846;28;20590;-43
2023/04/16 05:22:11;;;;;;;29.02;15.15;;;9.70;99.90;;;;;;5046357;28;20373;-43
2023/04/16 05:24:37;;;;;;;30.08;15.70;;;9.70;99.90;;;;;;5046314;28;20587;-44
2023/04/16 05:27:02;;;;;;;28.77;15.02;;;9.80;99.90;;;;;;5047067;28;20048;-44
2023/04/16 05:29:28;;;;;;;30.23;17.23;;;9.80;99.90;;;;;;5046369;28;20424;-42
2023/04/16 05:31:53;;;;;;;30.10;16.17;;;9.80;99.90;;;;;;5046484;28;20017;-42
2023/04/16 05:34:19;;;;;;;27.35;15.20;;;9.80;99.90;;;;;;5045928;28;20818;-43
2023/04/16 05:36:44;;;;;;;32.38;16.75;;;9.80;99.90;;;;;;5045212;28;20031;-42
2023/04/16 05:39:10;;;;;;;26.15;15.52;;;9.80;99.90;;;;;;5045028;28;20033;-43
2023/04/16 05:41:36;;;;;;;29.17;15.57;;;9.70;99.90;;;;;;5046335;28;20373;-43
2023/04/16 05:44:01;;;;;;;26.98;15.52;;;9.80;99.90;;;;;;5045784;28;20587;-43
2023/04/16 05:46:27;;;;;;;25.85;14.38;;;9.70;99.90;;;;;;5045973;28;20113;-43
2023/04/16 05:48:52;;;;;;;23.90;14.13;;;9.80;99.90;;;;;;5045569;28;20044;-43
2023/04/16 05:51:18;;;;;;;25.85;13.88;;;9.90;99.90;;;;;;5044633;28;20025;-42
2023/04/16 05:53:43;;;;;;;26.35;13.52;;;9.90;99.90;;;;;;5045727;28;20032;-43
2023/04/16 05:56:09;;;;;;;25.20;13.45;;;9.90;99.90;;;;;;5045817;28;20552;-44
2023/04/16 05:58:35;;;;;;;20.25;12.85;;;9.90;99.90;;;;;;5044969;28;20020;-42
2023/04/16 06:01:00;;;;;;;24.38;13.93;;;9.90;99.90;;;;;;5045622;28;20559;-43
2023/04/16 06:03:26;;;;;;;21.63;13.25;;;10.00;99.90;;;;;;5045909;28;20021;-43
2023/04/16 06:05:52;;;;;;;24.77;13.10;;;9.90;99.90;;;;;;5045527;28;20099;-44
2023/04/16 06:08:18;;;;;;;24.75;13.20;;;10.00;99.90;;;;;;5045998;28;20144;-44
2023/04/16 06:10:46;;;;;;;25.60;12.93;;;10.00;99.90;;;;;;5046000;28;20107;-43
2023/04/16 06:13:12;;;;;;;21.38;13.55;;;10.00;99.90;;;;;;5046374;28;20074;-43
2023/04/16 06:15:40;;;;;;;20.88;11.77;;;10.00;99.90;;;;;;5045385;28;20029;-43
2023/04/16 06:18:06;;;;;;;19.27;11.23;;;10.00;99.90;;;;;;5046133;28;20029;-43
2023/04/16 06:20:31;;;;;;;20.65;13.23;;;10.10;99.90;;;;;;5041866;28;20032;-43
2023/04/16 06:22:57;;;;;;;20.58;13.07;;;10.10;99.90;;;;;;5042401;28;20036;-43
2023/04/16 06:25:22;;;;;;;23.60;13.15;;;10.10;99.90;;;;;;5042003;28;20040;-44
2023/04/16 06:27:48;;;;;;;22.67;12.85;;;10.10;99.90;;;;;;5043166;28;20025;-42
2023/04/16 06:30:15;;;;;;;24.13;13.05;;;10.10;99.90;;;;;;5043306;28;20020;-44
2023/04/16 06:32:42;;;;;;;22.50;13.20;;;10.10;99.90;;;;;;5041888;28;20378;-42
2023/04/16 06:35:08;;;;;;;25.33;14.38;;;10.10;99.90;;;;;;5043212;28;20083;-43
2023/04/16 06:37:34;;;;;;;24.15;13.50;;;10.10;99.90;;;;;;5043057;28;20865;-44
2023/04/16 06:39:59;;;;;;;26.85;14.20;;;10.10;99.90;;;;;;5042958;28;20029;-42
2023/04/16 06:42:28;;;;;;;26.90;14.68;;;10.20;99.90;;;;;;5042536;28;20033;-43
2023/04/16 06:44:53;;;;;;;27.70;13.18;;;10.20;99.90;;;;;;5042555;28;20063;-43
2023/04/16 06:47:19;;;;;;;22.40;13.23;;;10.20;99.90;;;;;;5041758;28;20037;-42
2023/04/16 06:49:45;;;;;;;24.77;14.75;;;10.30;99.90;;;;;;5042281;28;20566;-43
2023/04/16 06:52:11;;;;;;;27.55;14.38;;;10.30;99.90;;;;;;5042308;28;20029;-43
2023/04/16 06:54:37;;;;;;;20.67;13.00;;;10.30;99.90;;;;;;5042016;28;20052;-42
2023/04/16 06:57:02;;;;;;;22.23;13.55;;;10.40;99.90;;;;;;5041647;28;20043;-43
2023/04/16 06:59:28;;;;;;;21.65;12.80;;;10.40;99.90;;;;;;5041533;28;20025;-43
2023/04/16 07:01:53;;;;;;;20.42;12.45;;;10.50;99.90;;;;;;5041085;28;20629;-44
2023/04/16 07:04:19;;;;;;;22.83;13.60;;;10.50;99.90;;;;;;5042059;28;20041;-43
2023/04/16 07:06:44;;;;;;;19.65;12.55;;;10.60;99.90;;;;;;5041744;28;20643;-43
2023/04/16 07:09:10;;;;;;;22.58;14.00;;;10.60;99.90;;;;;;5041225;28;20068;-43
2023/04/16 07:11:36;;;;;;;21.55;12.63;;;10.60;99.90;;;;;;5041099;28;20123;-43
2023/04/16 07:14:02;;;;;;;25.40;15.25;;;10.70;99.90;;;;;;5041539;28;20027;-43
2023/04/16 07:16:27;;;;;;;26.27;13.85;;;10.70;99.90;;;;;;5040846;28;20057;-43
2023/04/16 07:18:53;;;;;;;21.38;13.13;;;10.70;99.90;;;;;;5041299;28;20120;-43
2023/04/16 07:21:18;;;;;;;23.10;13.65;;;10.70;99.90;;;;;;5041319;28;20067;-43
2023/04/16 07:23:44;;;;;;;24.38;15.02;;;10.70;99.90;;;;;;5040647;28;20808;-43
2023/04/16 07:26:10;;;;;;;22.73;13.85;;;10.70;99.90;;;;;;5040999;28;20485;-43
2023/04/16 07:28:36;;;;;;;24.40;13.75;;;10.70;99.90;;;;;;5041194;28;20028;-44
2023/04/16 07:31:01;;;;;;;21.05;13.18;;;10.70;99.90;;;;;;5040849;28;20087;-43
2023/04/16 07:33:27;;;;;;;21.10;12.73;;;10.80;99.90;;;;;;5041433;28;20552;-44
2023/04/16 07:35:53;;;;;;;22.55;12.55;;;10.80;99.90;;;;;;5040858;28;20029;-43
2023/04/16 07:38:18;;;;;;;22.10;13.30;;;10.80;99.90;;;;;;5041936;28;20021;-45
2023/04/16 07:40:47;;;;;;;21.45;12.15;;;10.90;99.90;;;;;;5040961;28;20595;-43
2023/04/16 07:43:14;;;;;;;19.90;12.15;;;10.90;99.90;;;;;;5041190;28;20412;-42
2023/04/16 07:45:39;;;;;;;24.00;13.93;;;10.90;99.90;;;;;;5041432;28;20045;-45
2023/04/16 07:48:05;;;;;;;21.95;14.20;;;10.90;99.90;;;;;;5041632;28;20103;-45
2023/04/16 07:50:31;;;;;;;20.63;13.32;;;11.00;99.90;;;;;;5041184;28;20045;-43
2023/04/16 07:52:56;;;;;;;21.73;13.10;;;11.00;99.90;;;;;;5042104;28;20575;-43
2023/04/16 07:55:22;;;;;;;22.08;13.18;;;11.00;99.90;;;;;;5041570;28;20033;-43
2023/04/16 07:57:47;;;;;;;24.58;13.77;;;11.00;99.90;;;;;;5040962;28;20032;-43
2023/04/16 08:00:13;;;;;;;25.10;13.30;;;11.10;99.90;;;;;;5041878;28;20045;-43
2023/04/16 08:02:39;;;;;;;24.52;13.40;;;11.10;99.90;;;;;;5041019;28;20025;-43
2023/04/16 08:05:06;;;;;;;23.98;13.98;;;11.10;99.90;;;;;;5039868;28;20069;-43
2023/04/16 08:07:31;;;;;;;22.85;14.50;;;11.10;99.90;;;;;;5039958;28;20060;-43
2023/04/16 08:09:57;;;;;;;30.02;15.68;;;11.20;99.90;;;;;;5039585;28;20220;-44
2023/04/16 08:12:22;;;;;;;29.17;15.02;;;11.20;99.90;;;;;;5039826;28;20036;-45
2023/04/16 08:14:48;;;;;;;23.90;14.00;;;11.20;99.90;;;;;;5039869;28;20021;-42
2023/04/16 08:17:14;;;;;;;25.67;14.52;;;11.20;99.90;;;;;;5041141;28;20032;-43
2023/04/16 08:19:40;;;;;;;25.45;14.70;;;11.20;99.90;;;;;;5039503;28;20798;-45
2023/04/16 08:22:06;;;;;;;23.75;14.27;;;11.20;99.90;;;;;;5040407;28;20057;-43
2023/04/16 08:24:31;;;;;;;23.60;15.27;;;11.20;99.90;;;;;;5039816;28;20123;-43
2023/04/16 08:26:57;;;;;;;24.50;15.00;;;11.30;99.90;;;;;;5039834;28;20499;-44
2023/04/16 08:29:25;;;;;;;27.92;15.93;;;11.30;99.90;;;;;;5040043;28;20618;-43
2023/04/16 08:31:54;;;;;;;23.35;15.60;;;11.30;99.90;;;;;;5040366;28;20028;-44
2023/04/16 08:34:20;;;;;;;27.75;16.08;;;11.30;99.90;;;;;;5040104;28;20033;-43
2023/04/16 08:36:45;;;;;;;28.45;16.42;;;11.30;99.90;;;;;;5040120;28;20033;-43
2023/04/16 08:39:11;;;;;;;25.17;15.35;;;11.30;99.90;;;;;;5040256;28;20391;-44
2023/04/16 08:41:42;;;;;;;30.98;16.60;;;11.30;99.90;;;;;;5039755;28;20040;-43
2023/04/16 08:44:13;;;;;;;25.42;15.15;;;11.40;99.90;;;;;;5019832;28;20052;-44
2023/04/16 08:46:40;;;;;;;23.88;13.98;;;11.50;99.90;;;;;;5034693;28;20051;-43
2023/04/16 08:49:06;;;;;;;27.77;15.32;;;11.60;99.90;;;;;;5039496;28;20060;-44
2023/04/16 08:51:35;;;;;;;25.05;15.20;;;11.70;99.90;;;;;;5039804;28;20029;-43
2023/04/16 08:54:07;;;;;;;30.20;17.35;;;11.80;99.90;;;;;;5039535;28;20609;-43
2023/04/16 08:56:35;;;;;;;;;;;11.80;99.90;;;;;;5040176;28;20377;-44
2023/04/16 08:59:04;;;;;;;31.92;18.90;;;11.90;99.90;;;;;;5039889;28;19913;-43
2023/04/16 09:01:32;;;;;;;30.92;17.70;;;11.90;99.90;;;;;;5039783;28;20060;-43
2023/04/16 09:04:01;;;;;;;33.60;18.05;;;11.90;99.90;;;;;;5040644;28;20018;-43
2023/04/16 09:06:27;;;;;;;29.25;17.10;;;11.90;99.90;;;;;;5039515;28;20826;-43
2023/04/16 09:08:56;;;;;;;31.45;17.55;;;11.90;99.90;;;;;;5038742;28;20029;-43
2023/04/16 09:11:24;;;;;;;27.58;17.55;;;11.90;99.90;;;;;;5039975;28;20021;-43
2023/04/16 09:13:49;;;;;;;31.92;17.83;;;12.00;99.90;;;;;;5039941;28;20035;-43
2023/04/16 09:16:20;;;;;;;31.58;17.98;;;12.00;99.90;;;;;;5037973;28;20436;-47
2023/04/16 09:18:46;;;;;;;32.35;18.50;;;12.00;99.90;;;;;;5039120;28;20756;-44
2023/04/16 09:21:13;;;;;;;31.33;19.35;;;12.10;99.90;;;;;;5039204;28;20139;-32
2023/04/16 09:23:39;;;;;;;33.38;19.17;;;12.10;99.90;;;;;;5039003;28;20060;-34
2023/04/16 09:26:05;;;;;;;31.85;19.42;;;12.10;99.90;;;;;;5039303;28;20068;-33
2023/04/16 09:28:44;;;;;;;33.75;19.13;;;12.10;99.90;;;;;;5038379;28;20145;-34
2023/04/16 09:31:12;;;;;;;34.25;19.55;;;12.10;99.90;;;;;;5039488;28;20067;-33
2023/04/16 09:33:38;;;;;;;37.15;19.83;;;12.20;99.90;;;;;;5039659;28;20029;-34
2023/04/16 09:36:04;;;;;;;32.70;17.92;;;12.20;99.90;;;;;;5039282;28;20048;-35
2023/04/16 09:38:50;;;;;;;26.38;17.10;;;12.20;99.90;;;;;;5038727;28;20246;-33
2023/04/16 09:41:16;;;;;;;33.65;18.70;;;12.20;99.90;;;;;;5021549;28;20036;-33
2023/04/16 09:44:03;;;;;;;32.55;18.83;;;12.20;99.90;;;;;;5035549;28;20829;-33
2023/04/16 09:47:04;;;;;;;32.80;18.35;;;12.30;99.90;;;;;;5039855;28;20782;-34
2023/04/16 09:49:39;;;;;;;28.40;16.83;;;12.40;99.90;;;;;;5038539;28;20033;-34
2023/04/16 09:52:13;;;;;;;25.35;16.30;;;12.60;99.90;;;;;;5040011;28;20037;-33
2023/04/16 09:54:45;;;;;;;31.60;18.48;;;12.70;99.90;;;;;;5037386;28;20024;-34
2023/04/16 09:57:19;;;;;;;34.97;17.10;;;12.70;99.90;;;;;;5043429;28;20037;-34
2023/04/16 09:59:45;;;;;;;36.33;20.80;;;12.80;99.90;;;;;;5043146;28;20386;-35
2023/04/16 10:02:11;;;;;;;31.63;19.40;;;12.80;99.90;;;;;;5043164;28;20472;-35
2023/04/16 10:04:45;;;;;;;32.08;18.25;;;12.90;99.90;;;;;;5042271;28;20029;-35
2023/04/16 10:07:12;;;;;;;32.15;19.20;;;13.00;99.90;;;;;;5043622;28;20075;-35
2023/04/16 10:09:38;;;;;;;32.90;19.05;;;13.10;99.90;;;;;;5043023;28;20044;-32
2023/04/16 10:12:05;;;;;;;33.13;18.48;;;13.10;99.90;;;;;;5042798;28;20028;-31
2023/04/16 10:14:31;;;;;;;29.10;18.10;;;13.10;99.90;;;;;;5043415;28;20444;-35
2023/04/16 10:16:57;;;;;;;35.03;19.95;;;13.10;99.90;;;;;;5043326;28;20028;-33
2023/04/16 10:19:24;;;;;;;26.50;16.63;;;13.10;99.90;;;;;;5042393;28;20124;-32
2023/04/16 10:21:54;;;;;;;27.23;16.67;;;13.10;99.90;;;;;;5042563;28;20036;-33
2023/04/16 10:24:20;;;;;;;26.25;15.27;;;13.10;99.90;;;;;;5042320;28;20033;-35
2023/04/16 10:26:47;;;;;;;23.45;15.05;;;13.20;99.90;;;;;;5041408;28;20491;-35
2023/04/16 10:29:13;;;;;;;29.90;16.63;;;13.30;99.90;;;;;;5042806;28;20025;-35
2023/04/16 10:31:40;;;;;;;27.75;16.38;;;13.40;99.90;;;;;;5040989;28;20357;-32
2023/04/16 10:34:08;;;;;;;28.20;16.75;;;13.60;99.90;;;;;;5042181;28;20025;-33
2023/04/16 10:36:38;;;;;;;25.20;15.15;;;13.80;99.90;;;;;;5043014;28;20072;-33
2023/04/16 10:39:09;;;;;;;28.10;16.75;;;13.90;99.90;;;;;;5042502;28;20397;-34
2023/04/16 10:41:35;;;;;;;26.83;17.10;;;14.00;99.90;;;;;;5043461;28;20059;-33
2023/04/16 10:44:11;;;;;;;27.88;16.58;;;14.10;99.90;;;;;;5042609;28;20370;-35
2023/04/16 10:46:38;;;;;;;28.80;17.77;;;14.10;99.90;;;;;;5041402;28;20037;-33
2023/04/16 10:49:16;;;;;;;28.88;17.25;;;14.10;99.90;;;;;;5042899;28;20090;-33
2023/04/16 10:51:50;;;;;;;28.70;17.58;;;14.00;99.90;;;;;;5040083;28;20025;-35
2023/04/16 10:54:16;;;;;;;28.40;16.70;;;14.00;99.90;;;;;;5042497;28;20129;-33
2023/04/16 10:56:44;;;;;;;33.03;17.63;;;14.10;99.90;;;;;;5041630;28;20039;-33
2023/04/16 10:59:10;;;;;;;24.73;16.45;;;14.10;99.90;;;;;;5042575;28;20028;-33
2023/04/16 11:01:40;;;;;;;24.23;15.30;;;14.20;99.90;;;;;;5041011;28;20412;-33
2023/04/16 11:04:18;;;;;;;26.40;16.20;;;14.40;99.90;;;;;;5042289;28;20047;-33
2023/04/16 11:06:59;;;;;;;28.65;16.58;;;14.50;99.90;;;;;;5040426;28;20060;-33
2023/04/16 11:09:50;;;;;;;23.05;14.85;;;14.40;99.90;;;;;;5042220;28;20029;-33
2023/04/16 11:12:21;;;;;;;31.15;16.35;;;14.30;99.90;;;;;;5038550;28;20052;-33
2023/04/16 11:14:49;;;;;;;23.23;14.27;;;14.30;99.90;;;;;;5040967;28;20681;-43
2023/04/16 11:17:15;;;;;;;21.33;14.15;;;14.30;99.90;;;;;;5042581;28;20104;-42
2023/04/16 11:19:41;;;;;;;21.42;13.93;;;14.40;99.90;;;;;;5042019;28;20025;-43
2023/04/16 11:22:07;;;;;;;29.42;15.88;;;14.50;99.90;;;;;;5041207;28;20040;-43
2023/04/16 11:24:33;;;;;;;28.55;16.48;;;14.60;99.90;;;;;;5042064;28;20032;-42
2023/04/16 11:27:00;;;;;;;27.88;16.38;;;14.50;99.90;;;;;;5041625;28;20040;-42
2023/04/16 11:29:26;;;;;;;21.50;14.35;;;14.40;99.90;;;;;;5041576;28;20033;-44
2023/04/16 11:31:52;;;;;;;28.90;16.50;;;14.50;99.90;;;;;;5041031;28;20075;-46
2023/04/16 11:34:18;;;;;;;22.25;14.75;;;14.50;99.90;;;;;;5041113;28;20739;-45
2023/04/16 11:36:49;;;;;;;22.48;14.20;;;14.50;99.90;;;;;;5039266;28;20013;-44
2023/04/16 11:39:15;;;;;;;22.85;14.00;;;14.60;99.90;;;;;;5040700;28;20045;-43
2023/04/16 11:41:51;;;;;;;20.23;13.38;;;14.80;99.90;;;;;;5041065;28;20021;-44
2023/04/16 11:44:26;;;;;;;22.13;14.38;;;15.00;99.90;;;;;;5042067;28;20070;-42
2023/04/16 11:46:52;;;;;;;24.42;14.43;;;15.00;99.90;;;;;;5040916;28;20033;-42
2023/04/16 11:49:30;;;;;;;22.33;13.90;;;15.00;99.90;;;;;;5041845;28;20029;-43
2023/04/16 11:51:57;;;;;;;21.30;14.18;;;15.00;99.90;;;;;;5041366;28;20052;-44
2023/04/16 11:54:24;;;;;;;20.90;12.63;;;15.00;99.90;;;;;;5041860;28;20021;-43
2023/04/16 11:56:51;;;;;;;26.02;14.57;;;15.10;99.90;;;;;;5040667;28;20041;-43
2023/04/16 11:59:21;;;;;;;22.10;14.15;;;15.00;99.90;;;;;;5041846;28;20142;-44
2023/04/16 12:01:56;;;;;;;24.38;14.40;;;15.10;99.90;;;;;;5040398;28;20013;-43
2023/04/16 12:04:23;;;;;;;19.17;13.27;;;15.10;99.90;;;;;;5041159;28;20041;-43
2023/04/16 12:07:10;;;;;;;24.25;16.48;;;15.10;99.90;;;;;;5040732;28;20476;-44
2023/04/16 12:09:42;;;;;;;24.80;14.98;;;15.30;99.90;;;;;;5029672;28;20062;-42
2023/04/16 12:12:29;;;;;;;23.42;15.38;;;15.30;99.90;;;;;;5040192;28;20020;-42
2023/04/16 12:14:58;;;;;;;26.30;15.15;;;15.30;99.90;;;;;;5030702;28;20397;-43
2023/04/16 12:17:24;;;;;;;24.90;14.35;;;15.20;99.90;;;;;;5039303;28;20155;-43
2023/04/16 12:19:50;;;;;;;21.60;13.30;;;15.20;99.90;;;;;;5039426;28;20028;-45
2023/04/16 12:22:16;;;;;;;19.45;12.63;;;15.20;99.90;;;;;;5041627;28;20035;-43
2023/04/16 12:24:42;;;;;;;20.77;12.82;;;15.30;99.90;;;;;;5039643;28;20135;-43
2023/04/16 12:27:07;;;;;;;20.10;13.18;;;15.40;99.90;;;;;;5041095;28;20029;-43
2023/04/16 12:29:33;;;;;;;22.80;14.07;;;15.40;99.90;;;;;;5040355;28;20094;-43
2023/04/16 12:32:00;;;;;;;21.23;14.02;;;15.40;99.90;;;;;;5039891;28;20024;-44